createdAt,value
2022-09-28T00:01:08.138Z,0.70
2022-09-28T00:03:35.639Z,0.70
2022-09-28T00:06:07.481Z,0.65
2022-09-28T00:08:35.373Z,0.70
2022-09-28T00:11:03.840Z,0.75
2022-09-28T00:13:31.719Z,0.63
2022-09-28T00:16:01.496Z,0.60
2022-09-28T00:18:28.428Z,0.80
2022-09-28T00:21:15.148Z,0.70
2022-09-28T00:24:00.670Z,0.77
2022-09-28T00:26:28.669Z,0.65
2022-09-28T00:28:58.714Z,0.60
2022-09-28T00:31:28.095Z,0.70
2022-09-28T00:33:56.819Z,0.70
2022-09-28T00:36:24.663Z,0.60
2022-09-28T00:38:52.275Z,0.70
2022-09-28T00:41:18.779Z,0.52
2022-09-28T00:43:45.339Z,0.70
2022-09-28T00:46:35.552Z,0.50
2022-09-28T00:49:09.188Z,0.70
2022-09-28T00:51:37.182Z,0.60
2022-09-28T00:54:09.492Z,0.80
2022-09-28T00:56:40.545Z,0.57
2022-09-28T00:59:08.795Z,0.60
2022-09-28T01:01:36.051Z,0.50
2022-09-28T01:04:04.123Z,0.60
2022-09-28T01:06:33.787Z,0.40
2022-09-28T01:09:04.296Z,0.70
2022-09-28T01:13:59.568Z,0.47
2022-09-28T01:16:32.310Z,0.45
2022-09-28T01:19:12.721Z,0.50
2022-09-28T01:21:51.472Z,0.47
2022-09-28T01:24:35.722Z,0.50
2022-09-28T01:27:11.554Z,0.55
2022-09-28T01:29:44.682Z,0.73
2022-09-28T01:33:01.451Z,0.60
2022-09-28T01:35:41.104Z,0.40
2022-09-28T01:38:14.684Z,0.40
2022-09-28T01:40:42.011Z,0.70
2022-09-28T01:43:16.917Z,0.52
2022-09-28T01:45:55.298Z,0.50
2022-09-28T01:48:25.423Z,0.50
2022-09-28T01:50:58.009Z,0.60
2022-09-28T01:53:39.091Z,0.57
2022-09-28T01:56:12.331Z,0.60
2022-09-28T01:58:51.461Z,0.47
2022-09-28T02:01:26.821Z,0.52
2022-09-28T02:04:07.152Z,0.50
2022-09-28T02:06:42.029Z,0.50
2022-09-28T02:09:13.833Z,0.35
2022-09-28T02:11:45.313Z,0.50
2022-09-28T02:14:17.136Z,0.50
2022-09-28T02:16:46.510Z,0.43
2022-09-28T02:19:15.864Z,0.40
2022-09-28T02:21:49.523Z,0.43
2022-09-28T02:24:22.892Z,0.40
2022-09-28T02:26:51.864Z,0.57
2022-09-28T02:29:18.611Z,0.50
2022-09-28T02:31:45.297Z,0.40
2022-09-28T02:36:51.816Z,0.30
2022-09-28T02:39:19.113Z,0.38
2022-09-28T02:41:55.146Z,0.70
2022-09-28T02:44:30.785Z,0.40
2022-09-28T02:47:39.075Z,0.40
2022-09-28T02:50:43.973Z,0.40
2022-09-28T02:53:40.383Z,0.50
2022-09-28T02:56:15.951Z,0.30
2022-09-28T02:58:57.655Z,0.30
2022-09-28T03:01:50.441Z,0.43
2022-09-28T03:04:35.047Z,0.40
2022-09-28T03:07:09.497Z,0.38
2022-09-28T03:10:14.500Z,0.40
2022-09-28T03:12:43.397Z,0.35
2022-09-28T03:15:19.105Z,0.40
2022-09-28T03:17:45.990Z,0.40
2022-09-28T03:20:12.846Z,0.45
2022-09-28T03:22:39.645Z,0.32
2022-09-28T03:25:07.898Z,0.52
2022-09-28T03:27:34.773Z,0.35
2022-09-28T03:30:01.553Z,0.40
2022-09-28T03:32:28.069Z,0.40
2022-09-28T03:34:54.514Z,0.32
2022-09-28T03:37:20.993Z,0.40
2022-09-28T03:39:47.484Z,0.30
2022-09-28T03:42:13.922Z,0.35
2022-09-28T03:44:40.469Z,0.38
2022-09-28T03:47:08.691Z,0.30
2022-09-28T03:49:35.339Z,0.40
2022-09-28T03:52:02.533Z,0.38
2022-09-28T03:54:29.218Z,0.30
2022-09-28T03:56:55.865Z,0.30
2022-09-28T03:59:22.341Z,0.40
2022-09-28T04:01:50.280Z,0.40
2022-09-28T04:04:16.937Z,0.20
2022-09-28T04:06:43.769Z,0.20
2022-09-28T04:09:10.998Z,0.30
2022-09-28T04:11:53.133Z,0.30
2022-09-28T04:14:24.721Z,0.40
2022-09-28T04:16:54.459Z,0.30
2022-09-28T04:19:25.323Z,0.50
2022-09-28T04:21:51.928Z,0.43
2022-09-28T04:24:18.758Z,0.30
2022-09-28T04:26:45.426Z,0.30
2022-09-28T04:29:19.253Z,0.40
2022-09-28T04:31:49.845Z,0.77
2022-09-28T04:34:21.701Z,0.35
2022-09-28T04:36:48.994Z,0.40
2022-09-28T04:39:17.003Z,0.30
2022-09-28T04:41:43.766Z,0.63
2022-09-28T04:44:10.329Z,0.30
2022-09-28T04:46:36.826Z,0.50
2022-09-28T04:49:03.570Z,0.90
2022-09-28T04:51:33.428Z,0.40
2022-09-28T04:53:59.952Z,0.40
2022-09-28T04:56:26.498Z,0.40
2022-09-28T04:58:53.103Z,0.50
2022-09-28T05:01:23.618Z,0.38
2022-09-28T05:03:51.153Z,0.40
2022-09-28T05:06:17.970Z,0.40
2022-09-28T05:08:46.886Z,0.30
2022-09-28T05:11:14.643Z,0.40
2022-09-28T05:13:43.776Z,0.47
2022-09-28T05:16:11.037Z,0.45
2022-09-28T05:18:38.000Z,0.57
2022-09-28T05:21:09.313Z,0.57
2022-09-28T05:23:35.788Z,0.40
2022-09-28T05:26:03.032Z,0.68
2022-09-28T05:28:32.054Z,0.30
2022-09-28T05:31:03.260Z,0.60
2022-09-28T05:33:31.265Z,0.38
2022-09-28T05:36:01.285Z,0.50
2022-09-28T05:40:54.984Z,0.70
2022-09-28T05:43:21.841Z,0.40
2022-09-28T05:45:52.821Z,0.80
2022-09-28T05:48:21.850Z,0.43
2022-09-28T05:50:52.536Z,0.40
2022-09-28T05:53:20.141Z,0.30
2022-09-28T05:55:46.717Z,0.40
2022-09-28T05:58:13.231Z,0.47
2022-09-28T06:00:40.361Z,0.40
2022-09-28T06:03:11.003Z,0.40
2022-09-28T06:05:39.360Z,0.40
2022-09-28T06:08:08.359Z,0.43
2022-09-28T06:10:35.000Z,0.50
2022-09-28T06:13:02.139Z,0.60
2022-09-28T06:15:30.702Z,0.45
2022-09-28T06:18:02.174Z,0.40
2022-09-28T06:20:31.161Z,0.40
2022-09-28T06:22:57.649Z,0.38
2022-09-28T06:25:27.586Z,0.38
2022-09-28T06:27:58.976Z,0.40
2022-09-28T06:30:27.391Z,0.30
2022-09-28T06:32:55.970Z,0.38
2022-09-28T06:35:25.365Z,0.60
2022-09-28T06:37:52.838Z,0.47
2022-09-28T06:40:20.697Z,0.40
2022-09-28T06:43:03.472Z,0.52
2022-09-28T06:45:30.812Z,0.52
2022-09-28T06:47:59.781Z,0.55
2022-09-28T06:50:28.112Z,0.38
2022-09-28T06:52:55.388Z,0.32
2022-09-28T06:55:22.243Z,0.40
2022-09-28T06:57:58.078Z,0.43
2022-09-28T07:00:25.070Z,0.47
2022-09-28T07:02:51.520Z,0.50
2022-09-28T07:05:19.256Z,0.47
2022-09-28T07:07:46.194Z,0.50
2022-09-28T07:10:12.878Z,0.50
2022-09-28T07:12:40.556Z,0.35
2022-09-28T07:15:07.620Z,0.40
2022-09-28T07:17:41.548Z,0.40
2022-09-28T07:20:19.589Z,0.70
2022-09-28T07:22:48.335Z,0.50
2022-09-28T07:25:14.786Z,0.70
2022-09-28T07:27:41.261Z,0.50
2022-09-28T07:30:08.224Z,0.40
2022-09-28T07:32:37.315Z,0.60
2022-09-28T07:35:10.748Z,0.40
2022-09-28T07:37:37.536Z,0.50
2022-09-28T07:40:24.386Z,0.82
2022-09-28T07:42:51.023Z,0.50
2022-09-28T07:45:17.890Z,0.60
2022-09-28T07:47:45.823Z,0.73
2022-09-28T07:50:12.820Z,0.40
2022-09-28T07:52:39.310Z,0.70
2022-09-28T07:55:07.360Z,0.60
2022-09-28T07:57:34.868Z,0.40
2022-09-28T08:00:02.326Z,0.70
2022-09-28T08:02:28.891Z,0.57
2022-09-28T08:04:56.341Z,0.60
2022-09-28T08:07:24.240Z,0.47
2022-09-28T08:09:51.323Z,0.47
2022-09-28T08:12:19.626Z,0.50
2022-09-28T08:14:47.176Z,0.40
2022-09-28T08:17:13.888Z,0.60
2022-09-28T08:19:59.110Z,0.57
2022-09-28T08:22:25.683Z,0.57
2022-09-28T08:24:52.145Z,0.50
2022-09-28T08:27:18.598Z,0.50
2022-09-28T08:29:45.190Z,0.70
2022-09-28T08:32:11.716Z,0.52
2022-09-28T08:34:40.413Z,0.60
2022-09-28T08:37:12.532Z,0.50
2022-09-28T08:39:39.243Z,0.63
2022-09-28T08:42:16.858Z,0.60
2022-09-28T08:44:50.098Z,0.50
2022-09-28T08:47:39.037Z,0.40
2022-09-28T08:50:13.838Z,0.60
2022-09-28T08:52:40.605Z,0.40
2022-09-28T08:55:19.107Z,0.65
2022-09-28T08:57:56.090Z,0.60
2022-09-28T09:00:38.808Z,0.60
2022-09-28T09:03:15.095Z,0.60
2022-09-28T09:06:07.734Z,0.60
2022-09-28T09:08:40.223Z,0.50
2022-09-28T09:11:27.496Z,0.60
2022-09-28T09:14:27.708Z,0.60
2022-09-28T09:17:03.087Z,0.70
2022-09-28T09:19:35.585Z,0.50
2022-09-28T09:22:16.752Z,0.40
2022-09-28T09:24:48.423Z,0.60
2022-09-28T09:27:32.786Z,0.63
2022-09-28T09:30:19.370Z,0.70
2022-09-28T09:33:10.387Z,0.38
2022-09-28T09:36:22.384Z,0.47
2022-09-28T09:39:07.303Z,0.60
2022-09-28T09:42:06.082Z,0.47
2022-09-28T09:44:52.473Z,0.30
2022-09-28T09:47:37.963Z,0.70
2022-09-28T09:50:42.672Z,0.65
2022-09-28T09:53:25.332Z,1.02
2022-09-28T09:55:57.340Z,1.52
2022-09-28T09:58:34.064Z,2.10
2022-09-28T10:01:12.540Z,1.58
2022-09-28T10:03:46.164Z,2.00
2022-09-28T10:06:19.466Z,3.47
2022-09-28T10:08:55.948Z,2.83
2022-09-28T10:11:31.425Z,3.10
2022-09-28T10:13:58.467Z,2.75
2022-09-28T10:16:25.165Z,2.90
2022-09-28T10:18:51.697Z,3.08
2022-09-28T10:21:21.524Z,2.75
2022-09-28T10:23:55.031Z,2.30
2022-09-28T10:26:32.390Z,2.53
2022-09-28T10:29:13.127Z,2.08
2022-09-28T10:31:48.906Z,2.40
2022-09-28T10:34:19.057Z,2.08
2022-09-28T10:36:56.135Z,1.73
2022-09-28T10:39:44.676Z,2.35
2022-09-28T10:42:21.019Z,1.98
2022-09-28T10:44:58.906Z,1.90
2022-09-28T10:47:30.619Z,1.48
2022-09-28T10:49:58.239Z,1.50
2022-09-28T10:52:29.970Z,1.63
2022-09-28T10:54:56.752Z,1.50
2022-09-28T10:57:35.524Z,1.50
2022-09-28T11:00:03.381Z,1.17
2022-09-28T11:02:38.745Z,1.00
2022-09-28T11:05:07.825Z,1.00
2022-09-28T11:07:45.488Z,1.02
2022-09-28T11:10:39.333Z,1.00
2022-09-28T11:13:09.503Z,1.25
2022-09-28T11:15:42.657Z,0.88
2022-09-28T11:18:18.701Z,1.00
2022-09-28T11:20:45.622Z,1.10
2022-09-28T11:23:23.994Z,0.70
2022-09-28T11:26:09.359Z,0.73
2022-09-28T11:28:38.114Z,0.70
2022-09-28T11:31:07.985Z,0.90
2022-09-28T11:33:45.006Z,0.80
2022-09-28T11:36:22.563Z,0.80
2022-09-28T11:39:09.089Z,0.77
2022-09-28T11:41:52.884Z,0.70
2022-09-28T11:44:37.464Z,0.90
2022-09-28T11:47:10.014Z,0.70
2022-09-28T11:49:43.849Z,1.02
2022-09-28T11:52:22.481Z,0.75
2022-09-28T11:54:55.533Z,0.80
2022-09-28T11:57:26.820Z,1.38
2022-09-28T12:00:01.918Z,3.17
2022-09-28T12:02:37.267Z,4.80
2022-09-28T12:05:20.490Z,6.80
2022-09-28T12:07:56.533Z,8.43
2022-09-28T12:10:37.019Z,9.52
2022-09-28T12:16:23.024Z,11.25
2022-09-28T12:21:55.061Z,10.13
2022-09-28T12:24:44.140Z,10.85
2022-09-28T12:27:10.526Z,10.43
2022-09-28T12:29:42.169Z,11.07
2022-09-28T12:32:31.859Z,10.80
2022-09-28T12:34:58.689Z,11.17
2022-09-28T12:37:45.825Z,11.43
2022-09-28T12:40:37.641Z,11.00
2022-09-28T12:43:22.310Z,10.73
2022-09-28T12:46:18.255Z,10.65
2022-09-28T12:52:32.191Z,10.50
2022-09-28T12:55:23.141Z,9.77
2022-09-28T12:58:06.463Z,10.55
2022-09-28T13:00:54.711Z,10.43
2022-09-28T13:03:41.221Z,9.80
2022-09-28T13:06:25.901Z,10.45
2022-09-28T13:09:01.596Z,9.13
2022-09-28T13:11:31.989Z,9.23
2022-09-28T13:14:32.759Z,9.13
2022-09-28T13:17:41.803Z,9.15
2022-09-28T13:20:32.702Z,8.43
2022-09-28T13:23:11.602Z,7.85
2022-09-28T13:25:44.532Z,7.78
2022-09-28T13:28:15.533Z,7.13
2022-09-28T13:30:45.134Z,6.75
2022-09-28T13:33:20.391Z,6.87
2022-09-28T13:35:47.101Z,6.05
2022-09-28T13:38:16.348Z,6.57
2022-09-28T13:41:06.057Z,5.85
2022-09-28T13:44:13.398Z,5.88
2022-09-28T13:47:06.922Z,5.45
2022-09-28T13:50:03.015Z,5.65
2022-09-28T13:53:28.178Z,4.68
2022-09-28T13:56:08.622Z,4.70
2022-09-28T13:58:48.725Z,4.80
2022-09-28T14:01:21.730Z,4.82
2022-09-28T14:04:12.721Z,5.00
2022-09-28T14:06:47.489Z,4.30
2022-09-28T14:09:16.069Z,3.38
2022-09-28T14:11:56.712Z,4.07
2022-09-28T14:17:27.130Z,4.03
2022-09-28T14:20:00.202Z,3.60
2022-09-28T14:22:53.232Z,3.10
2022-09-28T14:25:30.364Z,3.05
2022-09-28T14:28:34.484Z,3.22
2022-09-28T14:31:08.708Z,2.78
2022-09-28T14:33:35.593Z,3.08
2022-09-28T14:36:44.547Z,2.78
2022-09-28T14:39:39.761Z,2.78
2022-09-28T14:42:13.405Z,2.17
2022-09-28T14:45:07.473Z,2.10
2022-09-28T14:48:12.344Z,2.10
2022-09-28T14:50:39.335Z,2.58
2022-09-28T14:53:20.823Z,3.45
2022-09-28T14:55:50.322Z,6.05
2022-09-28T14:58:26.771Z,10.00
2022-09-28T15:01:11.833Z,16.67
2022-09-28T15:03:41.838Z,23.00
2022-09-28T15:06:16.150Z,25.50
2022-09-28T15:08:42.864Z,28.60
2022-09-28T15:11:18.123Z,30.20
2022-09-28T15:13:44.662Z,34.00
2022-09-28T15:16:14.214Z,35.30
2022-09-28T15:18:50.395Z,38.67
2022-09-28T15:21:17.545Z,37.47
2022-09-28T15:23:45.465Z,38.30
2022-09-28T15:26:28.915Z,38.38
2022-09-28T15:31:36.429Z,38.53
2022-09-28T15:34:21.972Z,40.25
2022-09-28T15:36:49.947Z,40.13
2022-09-28T15:39:22.649Z,40.60
2022-09-28T15:41:50.877Z,40.00
2022-09-28T15:44:25.273Z,39.50
2022-09-28T15:47:05.410Z,39.38
2022-09-28T15:49:46.381Z,37.10
2022-09-28T15:52:54.090Z,39.63
2022-09-28T15:55:37.410Z,36.85
2022-09-28T15:58:17.404Z,35.78
2022-09-28T16:00:56.827Z,36.75
2022-09-28T16:03:29.304Z,37.05
2022-09-28T16:05:58.466Z,34.90
2022-09-28T16:08:32.953Z,34.42
2022-09-28T16:11:12.245Z,32.67
2022-09-28T16:13:55.150Z,31.92
2022-09-28T16:16:29.865Z,32.28
2022-09-28T16:19:00.487Z,31.23
2022-09-28T16:21:47.767Z,30.02
2022-09-28T16:24:25.703Z,29.13
2022-09-28T16:27:04.000Z,27.52
2022-09-28T16:29:40.815Z,27.02
2022-09-28T16:32:25.639Z,26.30
2022-09-28T16:35:13.591Z,25.73
2022-09-28T16:37:43.335Z,24.73
2022-09-28T16:40:10.711Z,24.90
2022-09-28T16:42:38.980Z,23.35
2022-09-28T16:45:08.026Z,23.40
2022-09-28T16:47:35.005Z,22.33
2022-09-28T16:50:06.314Z,21.75
2022-09-28T16:52:54.810Z,20.20
2022-09-28T16:55:39.407Z,19.55
2022-09-28T16:58:07.011Z,19.02
2022-09-28T17:00:33.586Z,18.13
2022-09-28T17:03:00.232Z,18.10
2022-09-28T17:05:26.766Z,15.95
2022-09-28T17:08:04.063Z,16.67
2022-09-28T17:11:02.144Z,16.05
2022-09-28T17:13:31.462Z,14.82
2022-09-28T17:15:58.935Z,13.77
2022-09-28T17:18:25.772Z,13.82
2022-09-28T17:20:55.058Z,13.48
2022-09-28T17:23:21.908Z,12.38
2022-09-28T17:25:48.977Z,11.55
2022-09-28T17:28:31.719Z,11.50
2022-09-28T17:30:58.317Z,10.73
2022-09-28T17:33:25.237Z,10.48
2022-09-28T17:35:54.347Z,9.80
2022-09-28T17:38:20.833Z,10.15
2022-09-28T17:40:48.174Z,8.90
2022-09-28T17:43:14.940Z,8.38
2022-09-28T17:45:41.788Z,7.93
2022-09-28T17:48:15.823Z,8.05
2022-09-28T17:50:46.442Z,8.10
2022-09-28T17:53:13.652Z,6.78
2022-09-28T17:55:40.634Z,6.25
2022-09-28T17:58:17.830Z,6.88
2022-09-28T18:00:46.226Z,6.55
2022-09-28T18:03:23.482Z,5.68
2022-09-28T18:05:58.240Z,5.47
2022-09-28T18:08:24.762Z,5.43
2022-09-28T18:10:51.266Z,5.22
2022-09-28T18:13:22.686Z,5.25
2022-09-28T18:15:53.338Z,4.40
2022-09-28T18:18:20.432Z,4.60
2022-09-28T18:20:46.954Z,4.10
2022-09-28T18:23:13.822Z,3.72
2022-09-28T18:25:44.722Z,4.40
2022-09-28T18:28:12.673Z,3.47
2022-09-28T18:33:21.071Z,3.13
2022-09-28T18:35:54.619Z,3.20
2022-09-28T18:38:21.622Z,2.83
2022-09-28T18:40:48.380Z,3.13
2022-09-28T18:43:16.370Z,2.55
2022-09-28T18:45:42.936Z,2.55
2022-09-28T18:48:09.548Z,3.10
2022-09-28T18:50:36.115Z,2.50
2022-09-28T18:53:11.938Z,2.70
2022-09-28T18:55:42.460Z,1.98
2022-09-28T19:03:23.087Z,2.17
2022-09-28T19:05:49.803Z,1.90
2022-09-28T19:08:16.491Z,2.00
2022-09-28T19:10:44.546Z,2.10
2022-09-28T19:13:10.998Z,2.00
2022-09-28T19:15:37.572Z,1.77
2022-09-28T19:18:04.699Z,2.20
2022-09-28T19:20:33.123Z,2.17
2022-09-28T19:22:59.735Z,1.98
2022-09-28T19:25:34.070Z,1.83
2022-09-28T19:28:00.805Z,2.00
2022-09-28T19:30:27.483Z,1.70
2022-09-28T19:35:34.440Z,1.70
2022-09-28T19:38:00.932Z,1.90
2022-09-28T19:40:27.543Z,1.92
2022-09-28T19:42:54.160Z,1.88
2022-09-28T19:45:20.706Z,1.73
2022-09-28T19:47:49.050Z,1.95
2022-09-28T19:50:15.749Z,1.80
2022-09-28T19:52:42.316Z,1.75
2022-09-28T19:55:08.960Z,1.90
2022-09-28T20:00:21.157Z,1.63
2022-09-28T20:02:47.692Z,1.92
2022-09-28T20:05:14.753Z,1.48
2022-09-28T20:07:41.230Z,2.10
2022-09-28T20:10:08.006Z,1.80
2022-09-28T20:12:34.614Z,2.00
2022-09-28T20:15:01.150Z,2.28
2022-09-28T20:17:27.724Z,1.80
2022-09-28T20:19:54.231Z,1.95
2022-09-28T20:22:21.346Z,1.92
2022-09-28T20:24:47.908Z,1.85
2022-09-28T20:27:14.586Z,2.25
2022-09-28T20:29:42.977Z,2.03
2022-09-28T20:32:09.461Z,1.90
2022-09-28T20:34:35.934Z,1.75
2022-09-28T20:37:02.485Z,2.08
2022-09-28T20:39:29.261Z,1.77
2022-09-28T20:41:57.630Z,1.92
2022-09-28T20:44:24.196Z,2.17
2022-09-28T20:46:51.415Z,1.83
2022-09-28T20:49:17.914Z,2.00
2022-09-28T20:51:44.777Z,2.20
2022-09-28T20:54:11.757Z,1.73
2022-09-28T20:56:38.905Z,1.90
2022-09-28T20:59:11.284Z,2.13
2022-09-28T21:01:38.515Z,2.05
2022-09-28T21:04:07.284Z,1.80
2022-09-28T21:06:36.797Z,2.00
2022-09-28T21:09:04.787Z,1.70
2022-09-28T21:11:32.091Z,1.95
2022-09-28T21:14:01.855Z,1.88
2022-09-28T21:16:30.577Z,2.17
2022-09-28T21:18:57.521Z,1.90
2022-09-28T21:21:25.383Z,2.00
2022-09-28T21:23:53.087Z,2.13
2022-09-28T21:26:27.169Z,1.92
2022-09-28T21:28:58.220Z,2.00
2022-09-28T21:31:29.157Z,2.08
2022-09-28T21:33:56.825Z,2.08
2022-09-28T21:36:23.410Z,2.00
2022-09-28T21:38:50.215Z,2.13
2022-09-28T21:41:17.222Z,2.22
2022-09-28T21:43:43.781Z,1.77
2022-09-28T21:46:10.851Z,2.20
2022-09-28T21:48:37.349Z,2.08
2022-09-28T21:51:06.579Z,1.88
2022-09-28T21:53:35.681Z,2.22
2022-09-28T21:56:04.623Z,2.30
2022-09-28T21:58:33.536Z,2.00
2022-09-28T22:01:13.190Z,2.28
2022-09-28T22:03:40.273Z,2.23
2022-09-28T22:06:07.509Z,1.83
2022-09-28T22:08:35.258Z,1.98
2022-09-28T22:11:05.626Z,2.10
2022-09-28T22:13:35.017Z,1.95
2022-09-28T22:16:02.082Z,2.22
2022-09-28T22:18:30.253Z,1.80
2022-09-28T22:21:02.836Z,1.80
2022-09-28T22:23:30.231Z,1.75
2022-09-28T22:26:07.735Z,1.70
2022-09-28T22:28:34.887Z,2.00
2022-09-28T22:31:01.684Z,2.10
2022-09-28T22:33:28.416Z,1.95
2022-09-28T22:35:55.484Z,1.80
2022-09-28T22:38:24.153Z,1.73
2022-09-28T22:40:52.643Z,1.77
2022-09-28T22:43:19.200Z,1.77
2022-09-28T22:45:45.939Z,1.83
2022-09-28T22:48:13.178Z,1.67
2022-09-28T22:50:47.158Z,1.60
2022-09-28T22:53:14.103Z,2.08
2022-09-28T22:55:41.729Z,1.95
2022-09-28T22:58:08.189Z,1.75
2022-09-28T23:00:34.650Z,1.83
2022-09-28T23:03:01.227Z,1.77
2022-09-28T23:05:27.766Z,1.90
2022-09-28T23:07:54.215Z,1.70
2022-09-28T23:10:20.723Z,1.50
2022-09-28T23:12:47.156Z,1.60
2022-09-28T23:15:13.750Z,1.55
2022-09-28T23:21:28.317Z,1.50
2022-09-28T23:24:01.567Z,1.60
2022-09-28T23:26:31.639Z,1.50
2022-09-28T23:28:59.566Z,1.60
2022-09-28T23:31:31.602Z,1.48
2022-09-28T23:34:02.284Z,1.60
2022-09-28T23:36:29.713Z,1.50
2022-09-28T23:38:56.472Z,1.50
2022-09-28T23:41:22.940Z,1.40
2022-09-28T23:43:49.457Z,1.80
2022-09-28T23:46:20.466Z,1.50
2022-09-28T23:48:47.652Z,1.40
2022-09-28T23:51:14.211Z,1.50
2022-09-28T23:53:40.766Z,1.50
